sensor_id;sensor_type;location;lat;lon;timestamp;P1;durP1;ratioP1;P2;durP2;ratioP2
16600;SDS011;34891;48.164;11.572;2023-06-14T00:04:17;5.35;;;2.72;;
16600;SDS011;34891;48.164;11.572;2023-06-14T00:09:22;6.38;;;2.42;;
16600;SDS011;34891;48.164;11.572;2023-06-14T00:14:26;4.93;;;2.30;;
16600;SDS011;34891;48.164;11.572;2023-06-14T00:19:29;5.15;;;2.80;;
16600;SDS011;34891;48.164;11.572;2023-06-14T00:24:36;5.75;;;2.28;;
16600;SDS011;34891;48.164;11.572;2023-06-14T00:29:41;4.43;;;2.60;;
16600;SDS011;34891;48.164;11.572;2023-06-14T00:34:44;4.07;;;2.17;;
16600;SDS011;34891;48.164;11.572;2023-06-14T00:39:47;5.87;;;2.57;;
16600;SDS011;34891;48.164;11.572;2023-06-14T00:44:51;4.50;;;2.47;;
16600;SDS011;34891;48.164;11.572;2023-06-14T00:49:54;7.63;;;2.72;;
16600;SDS011;34891;48.164;11.572;2023-06-14T00:54:57;4.20;;;2.50;;
16600;SDS011;34891;48.164;11.572;2023-06-14T01:00:02;4.63;;;2.43;;
16600;SDS011;34891;48.164;11.572;2023-06-14T01:05:06;5.85;;;2.45;;
16600;SDS011;34891;48.164;11.572;2023-06-14T01:10:12;8.25;;;2.90;;
16600;SDS011;34891;48.164;11.572;2023-06-14T01:15:19;5.78;;;2.83;;
16600;SDS011;34891;48.164;11.572;2023-06-14T01:20:23;7.40;;;2.92;;
16600;SDS011;34891;48.164;11.572;2023-06-14T01:25:32;6.43;;;2.65;;
16600;SDS011;34891;48.164;11.572;2023-06-14T01:30:37;6.13;;;2.80;;
16600;SDS011;34891;48.164;11.572;2023-06-14T01:35:40;5.23;;;2.30;;
16600;SDS011;34891;48.164;11.572;2023-06-14T01:40:44;4.27;;;2.30;;
16600;SDS011;34891;48.164;11.572;2023-06-14T01:45:47;5.68;;;2.58;;
16600;SDS011;34891;48.164;11.572;2023-06-14T01:50:51;4.10;;;2.25;;
16600;SDS011;34891;48.164;11.572;2023-06-14T01:55:55;5.57;;;2.78;;
16600;SDS011;34891;48.164;11.572;2023-06-14T02:00:59;4.20;;;2.58;;
16600;SDS011;34891;48.164;11.572;2023-06-14T02:06:02;6.60;;;2.90;;
16600;SDS011;34891;48.164;11.572;2023-06-14T02:11:06;7.43;;;2.90;;
16600;SDS011;34891;48.164;11.572;2023-06-14T02:16:09;7.47;;;2.92;;
16600;SDS011;34891;48.164;11.572;2023-06-14T02:21:12;6.15;;;2.80;;
16600;SDS011;34891;48.164;11.572;2023-06-14T02:26:16;6.03;;;2.47;;
16600;SDS011;34891;48.164;11.572;2023-06-14T02:36:21;7.00;;;3.03;;
16600;SDS011;34891;48.164;11.572;2023-06-14T02:41:26;5.13;;;2.83;;
16600;SDS011;34891;48.164;11.572;2023-06-14T02:46:29;4.78;;;2.60;;
16600;SDS011;34891;48.164;11.572;2023-06-14T02:51:31;7.28;;;3.00;;
16600;SDS011;34891;48.164;11.572;2023-06-14T02:56:35;5.13;;;2.67;;
16600;SDS011;34891;48.164;11.572;2023-06-14T03:01:38;6.53;;;2.97;;
16600;SDS011;34891;48.164;11.572;2023-06-14T03:06:42;6.30;;;2.85;;
16600;SDS011;34891;48.164;11.572;2023-06-14T03:11:52;6.25;;;2.65;;
16600;SDS011;34891;48.164;11.572;2023-06-14T03:16:55;6.10;;;3.15;;
16600;SDS011;34891;48.164;11.572;2023-06-14T03:21:58;6.37;;;2.90;;
16600;SDS011;34891;48.164;11.572;2023-06-14T03:27:03;7.15;;;3.15;;
16600;SDS011;34891;48.164;11.572;2023-06-14T03:32:06;5.07;;;2.78;;
16600;SDS011;34891;48.164;11.572;2023-06-14T03:37:09;5.00;;;3.05;;
16600;SDS011;34891;48.164;11.572;2023-06-14T03:42:14;6.07;;;2.78;;
16600;SDS011;34891;48.164;11.572;2023-06-14T03:47:17;7.30;;;3.15;;
16600;SDS011;34891;48.164;11.572;2023-06-14T03:52:19;6.20;;;3.10;;
16600;SDS011;34891;48.164;11.572;2023-06-14T04:02:27;9.75;;;3.10;;
16600;SDS011;34891;48.164;11.572;2023-06-14T04:07:31;5.50;;;2.75;;
16600;SDS011;34891;48.164;11.572;2023-06-14T04:12:33;4.03;;;2.65;;
16600;SDS011;34891;48.164;11.572;2023-06-14T04:17:38;5.17;;;2.97;;
16600;SDS011;34891;48.164;11.572;2023-06-14T04:22:41;6.97;;;2.67;;
16600;SDS011;34891;48.164;11.572;2023-06-14T04:27:44;4.60;;;2.60;;
16600;SDS011;34891;48.164;11.572;2023-06-14T04:32:50;5.82;;;2.80;;
16600;SDS011;34891;48.164;11.572;2023-06-14T04:37:55;6.53;;;2.97;;
16600;SDS011;34891;48.164;11.572;2023-06-14T04:42:59;8.23;;;2.75;;
16600;SDS011;34891;48.164;11.572;2023-06-14T04:48:03;6.33;;;2.70;;
16600;SDS011;34891;48.164;11.572;2023-06-14T04:53:08;7.50;;;1.45;;
16600;SDS011;34891;48.164;11.572;2023-06-14T04:58:12;4.15;;;2.17;;
16600;SDS011;34891;48.164;11.572;2023-06-14T05:03:16;6.78;;;3.30;;
16600;SDS011;34891;48.164;11.572;2023-06-14T05:08:20;6.82;;;3.22;;
16600;SDS011;34891;48.164;11.572;2023-06-14T05:13:24;8.10;;;2.53;;
16600;SDS011;34891;48.164;11.572;2023-06-14T05:18:30;5.28;;;2.35;;
16600;SDS011;34891;48.164;11.572;2023-06-14T05:23:35;8.15;;;2.65;;
16600;SDS011;34891;48.164;11.572;2023-06-14T05:28:38;7.55;;;3.00;;
16600;SDS011;34891;48.164;11.572;2023-06-14T05:33:42;8.70;;;2.72;;
16600;SDS011;34891;48.164;11.572;2023-06-14T05:38:45;5.53;;;2.88;;
16600;SDS011;34891;48.164;11.572;2023-06-14T05:43:48;5.68;;;2.47;;
16600;SDS011;34891;48.164;11.572;2023-06-14T05:48:52;5.90;;;2.70;;
16600;SDS011;34891;48.164;11.572;2023-06-14T05:53:55;8.55;;;2.72;;
16600;SDS011;34891;48.164;11.572;2023-06-14T05:58:58;7.40;;;2.73;;
16600;SDS011;34891;48.164;11.572;2023-06-14T06:04:02;7.65;;;3.20;;
16600;SDS011;34891;48.164;11.572;2023-06-14T06:09:05;5.18;;;2.70;;
16600;SDS011;34891;48.164;11.572;2023-06-14T06:14:08;5.30;;;2.90;;
16600;SDS011;34891;48.164;11.572;2023-06-14T06:19:12;7.45;;;2.65;;
16600;SDS011;34891;48.164;11.572;2023-06-14T06:24:14;6.15;;;2.78;;
16600;SDS011;34891;48.164;11.572;2023-06-14T06:29:18;6.05;;;2.83;;
16600;SDS011;34891;48.164;11.572;2023-06-14T06:34:22;4.93;;;2.97;;
16600;SDS011;34891;48.164;11.572;2023-06-14T06:39:25;6.47;;;2.78;;
16600;SDS011;34891;48.164;11.572;2023-06-14T06:44:27;7.37;;;2.90;;
16600;SDS011;34891;48.164;11.572;2023-06-14T06:49:31;6.97;;;3.45;;
16600;SDS011;34891;48.164;11.572;2023-06-14T06:54:34;5.80;;;2.55;;
16600;SDS011;34891;48.164;11.572;2023-06-14T06:59:37;5.43;;;2.63;;
16600;SDS011;34891;48.164;11.572;2023-06-14T07:04:41;3.88;;;2.25;;
16600;SDS011;34891;48.164;11.572;2023-06-14T07:09:44;5.82;;;2.70;;
16600;SDS011;34891;48.164;11.572;2023-06-14T07:14:47;5.47;;;2.63;;
16600;SDS011;34891;48.164;11.572;2023-06-14T07:19:51;6.18;;;2.72;;
16600;SDS011;34891;48.164;11.572;2023-06-14T07:24:54;4.05;;;2.15;;
16600;SDS011;34891;48.164;11.572;2023-06-14T07:29:57;4.80;;;2.47;;
16600;SDS011;34891;48.164;11.572;2023-06-14T07:35:02;3.38;;;1.85;;
16600;SDS011;34891;48.164;11.572;2023-06-14T07:40:05;4.45;;;2.60;;
16600;SDS011;34891;48.164;11.572;2023-06-14T07:45:09;5.40;;;2.58;;
16600;SDS011;34891;48.164;11.572;2023-06-14T07:50:13;4.85;;;2.70;;
16600;SDS011;34891;48.164;11.572;2023-06-14T07:55:16;5.50;;;2.50;;
16600;SDS011;34891;48.164;11.572;2023-06-14T08:05:23;4.45;;;2.42;;
16600;SDS011;34891;48.164;11.572;2023-06-14T08:10:27;3.75;;;2.13;;
16600;SDS011;34891;48.164;11.572;2023-06-14T08:15:29;6.35;;;2.58;;
16600;SDS011;34891;48.164;11.572;2023-06-14T08:20:34;4.50;;;2.65;;
16600;SDS011;34891;48.164;11.572;2023-06-14T08:25:37;7.43;;;3.03;;
16600;SDS011;34891;48.164;11.572;2023-06-14T08:30:41;5.30;;;3.10;;
16600;SDS011;34891;48.164;11.572;2023-06-14T08:35:45;5.55;;;2.95;;
16600;SDS011;34891;48.164;11.572;2023-06-14T08:40:50;7.30;;;2.78;;
16600;SDS011;34891;48.164;11.572;2023-06-14T08:45:53;4.93;;;3.20;;
16600;SDS011;34891;48.164;11.572;2023-06-14T08:50:59;3.90;;;2.90;;
16600;SDS011;34891;48.164;11.572;2023-06-14T08:56:04;2.38;;;1.90;;
16600;SDS011;34891;48.164;11.572;2023-06-14T09:01:09;5.35;;;2.70;;
16600;SDS011;34891;48.164;11.572;2023-06-14T09:06:17;6.20;;;3.20;;
16600;SDS011;34891;48.164;11.572;2023-06-14T09:11:20;6.45;;;3.17;;
16600;SDS011;34891;48.164;11.572;2023-06-14T09:16:23;5.45;;;3.55;;
16600;SDS011;34891;48.164;11.572;2023-06-14T09:21:29;4.10;;;3.08;;
16600;SDS011;34891;48.164;11.572;2023-06-14T09:26:35;5.22;;;3.20;;
16600;SDS011;34891;48.164;11.572;2023-06-14T09:31:40;7.20;;;2.83;;
16600;SDS011;34891;48.164;11.572;2023-06-14T09:36:45;6.22;;;3.50;;
16600;SDS011;34891;48.164;11.572;2023-06-14T09:41:48;4.13;;;3.38;;
16600;SDS011;34891;48.164;11.572;2023-06-14T09:46:50;4.47;;;3.35;;
16600;SDS011;34891;48.164;11.572;2023-06-14T09:51:55;4.95;;;3.30;;
16600;SDS011;34891;48.164;11.572;2023-06-14T09:56:59;5.38;;;3.88;;
16600;SDS011;34891;48.164;11.572;2023-06-14T10:02:05;4.25;;;3.80;;
16600;SDS011;34891;48.164;11.572;2023-06-14T10:07:13;6.50;;;4.00;;
16600;SDS011;34891;48.164;11.572;2023-06-14T10:12:17;7.53;;;3.50;;
16600;SDS011;34891;48.164;11.572;2023-06-14T10:17:24;5.03;;;3.20;;
16600;SDS011;34891;48.164;11.572;2023-06-14T10:22:30;6.22;;;3.78;;
16600;SDS011;34891;48.164;11.572;2023-06-14T10:27:34;5.82;;;3.58;;
16600;SDS011;34891;48.164;11.572;2023-06-14T10:37:56;4.90;;;3.38;;
16600;SDS011;34891;48.164;11.572;2023-06-14T10:43:21;3.92;;;3.53;;
16600;SDS011;34891;48.164;11.572;2023-06-14T10:48:29;5.70;;;3.65;;
16600;SDS011;34891;48.164;11.572;2023-06-14T10:53:38;7.07;;;3.70;;
16600;SDS011;34891;48.164;11.572;2023-06-14T10:58:42;5.65;;;3.65;;
16600;SDS011;34891;48.164;11.572;2023-06-14T11:03:50;4.45;;;3.60;;
16600;SDS011;34891;48.164;11.572;2023-06-14T11:09:23;5.03;;;4.03;;
16600;SDS011;34891;48.164;11.572;2023-06-14T11:14:29;4.57;;;3.45;;
16600;SDS011;34891;48.164;11.572;2023-06-14T11:19:32;6.43;;;3.53;;
16600;SDS011;34891;48.164;11.572;2023-06-14T11:24:36;5.13;;;3.60;;
16600;SDS011;34891;48.164;11.572;2023-06-14T11:29:42;3.80;;;2.97;;
16600;SDS011;34891;48.164;11.572;2023-06-14T11:34:49;7.43;;;3.35;;
16600;SDS011;34891;48.164;11.572;2023-06-14T11:39:55;5.10;;;3.47;;
16600;SDS011;34891;48.164;11.572;2023-06-14T11:44:58;4.93;;;3.35;;
16600;SDS011;34891;48.164;11.572;2023-06-14T11:50:16;5.25;;;3.60;;
16600;SDS011;34891;48.164;11.572;2023-06-14T11:55:20;3.92;;;3.28;;
16600;SDS011;34891;48.164;11.572;2023-06-14T12:00:24;5.38;;;3.03;;
16600;SDS011;34891;48.164;11.572;2023-06-14T12:05:27;5.03;;;3.33;;
16600;SDS011;34891;48.164;11.572;2023-06-14T12:10:33;6.45;;;3.20;;
16600;SDS011;34891;48.164;11.572;2023-06-14T12:15:41;6.38;;;3.10;;
16600;SDS011;34891;48.164;11.572;2023-06-14T12:20:47;3.97;;;2.95;;
16600;SDS011;34891;48.164;11.572;2023-06-14T12:25:52;5.22;;;2.63;;
16600;SDS011;34891;48.164;11.572;2023-06-14T12:30:55;4.85;;;3.13;;
16600;SDS011;34891;48.164;11.572;2023-06-14T12:36:00;5.18;;;3.20;;
16600;SDS011;34891;48.164;11.572;2023-06-14T12:41:06;5.50;;;3.10;;
16600;SDS011;34891;48.164;11.572;2023-06-14T12:46:09;6.43;;;3.22;;
16600;SDS011;34891;48.164;11.572;2023-06-14T12:51:12;7.07;;;3.33;;
16600;SDS011;34891;48.164;11.572;2023-06-14T12:56:16;4.72;;;3.25;;
16600;SDS011;34891;48.164;11.572;2023-06-14T13:01:18;6.07;;;3.00;;
16600;SDS011;34891;48.164;11.572;2023-06-14T13:06:21;5.20;;;3.40;;
16600;SDS011;34891;48.164;11.572;2023-06-14T13:11:28;4.20;;;2.88;;
16600;SDS011;34891;48.164;11.572;2023-06-14T13:16:31;5.13;;;3.10;;
16600;SDS011;34891;48.164;11.572;2023-06-14T13:21:33;5.68;;;3.17;;
16600;SDS011;34891;48.164;11.572;2023-06-14T13:26:37;7.57;;;3.17;;
16600;SDS011;34891;48.164;11.572;2023-06-14T13:31:41;5.72;;;2.90;;
16600;SDS011;34891;48.164;11.572;2023-06-14T13:36:43;6.05;;;2.80;;
16600;SDS011;34891;48.164;11.572;2023-06-14T13:41:47;4.45;;;2.58;;
16600;SDS011;34891;48.164;11.572;2023-06-14T13:46:50;5.10;;;2.67;;
16600;SDS011;34891;48.164;11.572;2023-06-14T13:51:53;5.47;;;3.00;;
16600;SDS011;34891;48.164;11.572;2023-06-14T13:56:57;4.93;;;2.60;;
16600;SDS011;34891;48.164;11.572;2023-06-14T14:02:00;7.25;;;3.00;;
16600;SDS011;34891;48.164;11.572;2023-06-14T14:07:04;5.35;;;2.67;;
16600;SDS011;34891;48.164;11.572;2023-06-14T14:12:08;4.03;;;2.65;;
16600;SDS011;34891;48.164;11.572;2023-06-14T14:17:11;5.43;;;2.70;;
16600;SDS011;34891;48.164;11.572;2023-06-14T14:22:14;6.20;;;2.67;;
16600;SDS011;34891;48.164;11.572;2023-06-14T14:27:18;5.65;;;2.95;;
16600;SDS011;34891;48.164;11.572;2023-06-14T14:32:21;5.97;;;3.30;;
16600;SDS011;34891;48.164;11.572;2023-06-14T14:37:24;5.63;;;2.70;;
16600;SDS011;34891;48.164;11.572;2023-06-14T14:42:28;9.93;;;2.95;;
16600;SDS011;34891;48.164;11.572;2023-06-14T14:47:31;4.68;;;2.50;;
16600;SDS011;34891;48.164;11.572;2023-06-14T14:52:33;7.90;;;2.75;;
16600;SDS011;34891;48.164;11.572;2023-06-14T14:57:38;4.70;;;2.97;;
16600;SDS011;34891;48.164;11.572;2023-06-14T15:02:41;4.82;;;3.10;;
16600;SDS011;34891;48.164;11.572;2023-06-14T15:07:44;7.25;;;2.88;;
16600;SDS011;34891;48.164;11.572;2023-06-14T15:12:48;5.30;;;2.92;;
16600;SDS011;34891;48.164;11.572;2023-06-14T15:17:51;7.88;;;2.90;;
16600;SDS011;34891;48.164;11.572;2023-06-14T15:28:01;4.78;;;2.50;;
16600;SDS011;34891;48.164;11.572;2023-06-14T15:33:07;4.68;;;2.80;;
16600;SDS011;34891;48.164;11.572;2023-06-14T15:38:10;7.30;;;2.72;;
16600;SDS011;34891;48.164;11.572;2023-06-14T15:43:14;6.32;;;3.30;;
16600;SDS011;34891;48.164;11.572;2023-06-14T15:48:17;4.90;;;2.55;;
16600;SDS011;34891;48.164;11.572;2023-06-14T15:53:20;4.85;;;3.13;;
16600;SDS011;34891;48.164;11.572;2023-06-14T15:58:24;6.07;;;2.75;;
16600;SDS011;34891;48.164;11.572;2023-06-14T16:03:26;6.60;;;3.08;;
16600;SDS011;34891;48.164;11.572;2023-06-14T16:13:42;7.15;;;3.03;;
16600;SDS011;34891;48.164;11.572;2023-06-14T16:18:45;7.80;;;3.15;;
16600;SDS011;34891;48.164;11.572;2023-06-14T16:23:48;6.40;;;2.80;;
16600;SDS011;34891;48.164;11.572;2023-06-14T16:28:52;6.00;;;3.28;;
16600;SDS011;34891;48.164;11.572;2023-06-14T16:33:55;6.75;;;3.35;;
16600;SDS011;34891;48.164;11.572;2023-06-14T16:38:57;6.15;;;3.22;;
16600;SDS011;34891;48.164;11.572;2023-06-14T16:44:01;4.72;;;3.03;;
16600;SDS011;34891;48.164;11.572;2023-06-14T16:49:06;8.95;;;3.40;;
16600;SDS011;34891;48.164;11.572;2023-06-14T16:54:09;11.10;;;3.47;;
16600;SDS011;34891;48.164;11.572;2023-06-14T16:59:13;4.80;;;3.15;;
16600;SDS011;34891;48.164;11.572;2023-06-14T17:04:16;7.22;;;3.22;;
16600;SDS011;34891;48.164;11.572;2023-06-14T17:14:23;7.87;;;3.43;;
16600;SDS011;34891;48.164;11.572;2023-06-14T17:19:26;7.15;;;3.90;;
16600;SDS011;34891;48.164;11.572;2023-06-14T17:24:29;5.35;;;3.17;;
16600;SDS011;34891;48.164;11.572;2023-06-14T17:29:33;4.65;;;3.08;;
16600;SDS011;34891;48.164;11.572;2023-06-14T17:34:35;5.65;;;3.20;;
16600;SDS011;34891;48.164;11.572;2023-06-14T17:39:38;7.53;;;3.50;;
16600;SDS011;34891;48.164;11.572;2023-06-14T17:44:44;6.65;;;3.60;;
16600;SDS011;34891;48.164;11.572;2023-06-14T17:49:46;5.63;;;3.15;;
16600;SDS011;34891;48.164;11.572;2023-06-14T17:54:51;5.63;;;3.08;;
16600;SDS011;34891;48.164;11.572;2023-06-14T17:59:55;7.05;;;3.28;;
16600;SDS011;34891;48.164;11.572;2023-06-14T18:04:58;9.57;;;4.13;;
16600;SDS011;34891;48.164;11.572;2023-06-14T18:10:00;6.95;;;3.67;;
16600;SDS011;34891;48.164;11.572;2023-06-14T18:15:06;4.78;;;2.88;;
16600;SDS011;34891;48.164;11.572;2023-06-14T18:20:09;7.10;;;3.08;;
16600;SDS011;34891;48.164;11.572;2023-06-14T18:25:12;5.57;;;3.22;;
16600;SDS011;34891;48.164;11.572;2023-06-14T18:30:17;8.02;;;3.63;;
16600;SDS011;34891;48.164;11.572;2023-06-14T18:35:20;7.13;;;3.00;;
16600;SDS011;34891;48.164;11.572;2023-06-14T18:40:24;5.07;;;2.88;;
16600;SDS011;34891;48.164;11.572;2023-06-14T18:45:29;5.57;;;3.40;;
16600;SDS011;34891;48.164;11.572;2023-06-14T18:50:32;6.43;;;2.78;;
16600;SDS011;34891;48.164;11.572;2023-06-14T19:00:39;6.75;;;3.20;;
16600;SDS011;34891;48.164;11.572;2023-06-14T19:05:42;8.02;;;3.75;;
16600;SDS011;34891;48.164;11.572;2023-06-14T19:10:44;5.50;;;3.07;;
16600;SDS011;34891;48.164;11.572;2023-06-14T19:15:48;6.57;;;3.33;;
16600;SDS011;34891;48.164;11.572;2023-06-14T19:20:54;7.35;;;3.50;;
16600;SDS011;34891;48.164;11.572;2023-06-14T19:25:57;9.83;;;3.67;;
16600;SDS011;34891;48.164;11.572;2023-06-14T19:31:01;9.90;;;3.87;;
16600;SDS011;34891;48.164;11.572;2023-06-14T19:36:04;11.07;;;5.22;;
16600;SDS011;34891;48.164;11.572;2023-06-14T19:41:07;7.20;;;3.90;;
16600;SDS011;34891;48.164;11.572;2023-06-14T19:46:10;6.57;;;3.13;;
16600;SDS011;34891;48.164;11.572;2023-06-14T19:51:13;7.32;;;3.85;;
16600;SDS011;34891;48.164;11.572;2023-06-14T19:56:16;8.83;;;3.53;;
16600;SDS011;34891;48.164;11.572;2023-06-14T20:01:20;8.47;;;3.63;;
16600;SDS011;34891;48.164;11.572;2023-06-14T20:06:23;6.60;;;3.33;;
16600;SDS011;34891;48.164;11.572;2023-06-14T20:11:26;6.50;;;3.27;;
16600;SDS011;34891;48.164;11.572;2023-06-14T20:16:30;6.75;;;3.15;;
16600;SDS011;34891;48.164;11.572;2023-06-14T20:21:33;7.80;;;3.53;;
16600;SDS011;34891;48.164;11.572;2023-06-14T20:26:36;6.43;;;3.60;;
16600;SDS011;34891;48.164;11.572;2023-06-14T20:31:40;5.00;;;2.73;;
16600;SDS011;34891;48.164;11.572;2023-06-14T20:36:43;8.88;;;3.10;;
16600;SDS011;34891;48.164;11.572;2023-06-14T20:41:46;7.77;;;3.10;;
16600;SDS011;34891;48.164;11.572;2023-06-14T20:46:49;11.75;;;3.75;;
16600;SDS011;34891;48.164;11.572;2023-06-14T20:51:52;9.30;;;4.03;;
16600;SDS011;34891;48.164;11.572;2023-06-14T20:56:55;7.47;;;3.50;;
16600;SDS011;34891;48.164;11.572;2023-06-14T21:01:59;7.82;;;3.45;;
16600;SDS011;34891;48.164;11.572;2023-06-14T21:07:02;10.13;;;3.55;;
16600;SDS011;34891;48.164;11.572;2023-06-14T21:12:05;8.83;;;3.10;;
16600;SDS011;34891;48.164;11.572;2023-06-14T21:17:10;8.93;;;3.50;;
16600;SDS011;34891;48.164;11.572;2023-06-14T21:22:12;5.32;;;3.10;;
16600;SDS011;34891;48.164;11.572;2023-06-14T21:27:15;8.40;;;3.40;;
16600;SDS011;34891;48.164;11.572;2023-06-14T21:32:19;7.22;;;3.22;;
16600;SDS011;34891;48.164;11.572;2023-06-14T21:37:21;5.32;;;2.92;;
16600;SDS011;34891;48.164;11.572;2023-06-14T21:42:24;9.05;;;3.10;;
16600;SDS011;34891;48.164;11.572;2023-06-14T21:47:28;5.70;;;3.08;;
16600;SDS011;34891;48.164;11.572;2023-06-14T21:52:31;6.35;;;3.10;;
16600;SDS011;34891;48.164;11.572;2023-06-14T21:57:33;6.28;;;3.08;;
16600;SDS011;34891;48.164;11.572;2023-06-14T22:02:37;5.32;;;2.90;;
16600;SDS011;34891;48.164;11.572;2023-06-14T22:07:40;6.78;;;3.13;;
16600;SDS011;34891;48.164;11.572;2023-06-14T22:12:45;4.47;;;2.53;;
16600;SDS011;34891;48.164;11.572;2023-06-14T22:17:51;5.95;;;3.00;;
16600;SDS011;34891;48.164;11.572;2023-06-14T22:22:54;6.85;;;3.35;;
16600;SDS011;34891;48.164;11.572;2023-06-14T22:27:58;7.22;;;3.35;;
16600;SDS011;34891;48.164;11.572;2023-06-14T22:33:03;6.32;;;3.00;;
16600;SDS011;34891;48.164;11.572;2023-06-14T22:38:05;7.10;;;3.22;;
16600;SDS011;34891;48.164;11.572;2023-06-14T22:43:09;5.15;;;3.15;;
16600;SDS011;34891;48.164;11.572;2023-06-14T22:48:15;6.07;;;3.10;;
16600;SDS011;34891;48.164;11.572;2023-06-14T22:53:17;6.75;;;3.38;;
16600;SDS011;34891;48.164;11.572;2023-06-14T22:58:20;7.15;;;3.10;;
16600;SDS011;34891;48.164;11.572;2023-06-14T23:03:28;4.43;;;2.63;;
16600;SDS011;34891;48.164;11.572;2023-06-14T23:08:30;6.25;;;3.05;;
16600;SDS011;34891;48.164;11.572;2023-06-14T23:13:34;5.80;;;3.13;;
16600;SDS011;34891;48.164;11.572;2023-06-14T23:18:40;4.88;;;3.13;;
16600;SDS011;34891;48.164;11.572;2023-06-14T23:23:43;8.70;;;3.28;;
16600;SDS011;34891;48.164;11.572;2023-06-14T23:28:49;8.23;;;3.90;;
16600;SDS011;34891;48.164;11.572;2023-06-14T23:33:56;7.85;;;3.35;;
16600;SDS011;34891;48.164;11.572;2023-06-14T23:38:58;7.95;;;3.63;;
16600;SDS011;34891;48.164;11.572;2023-06-14T23:44:04;6.53;;;3.40;;
16600;SDS011;34891;48.164;11.572;2023-06-14T23:49:09;5.53;;;3.33;;
16600;SDS011;34891;48.164;11.572;2023-06-14T23:54:12;6.50;;;3.25;;
16600;SDS011;34891;48.164;11.572;2023-06-14T23:59:19;6.18;;;3.55;;
